Time;durP1;ratioP1;P1;durP2;ratioP2;P2;SDS_P1;SDS_P2;PMS_P1;PMS_P2;Temp;Humidity;BMP_temperature;BMP_pressure;BME280_temperature;BME280_humidity;BME280_pressure;Samples;Min_cycle;Max_cycle;Signal;HPM_P1;HPM_P2
2024/01/07 00:01:11;;;;;;;47.97;21.37;;;;;;;;;;4962777;28;20237;-72
2024/01/07 00:03:36;;;;;;;46.33;21.77;;;;;;;;;;4949678;28;20713;-72
2024/01/07 00:06:02;;;;;;;50.27;21.13;;;;;;;;;;4966459;28;20248;-72
2024/01/07 00:08:27;;;;;;;48.77;21.33;;;;;;;;;;4957434;28;20220;-72
2024/01/07 00:10:52;;;;;;;48.63;20.90;;;;;;;;;;4963639;28;20772;-74
2024/01/07 00:13:18;;;;;;;46.13;20.77;;;;;;;;;;4957681;28;20649;-73
2024/01/07 00:15:43;;;;;;;44.97;21.43;;;;;;;;;;4942962;28;20733;-73
2024/01/07 00:18:08;;;;;;;43.77;20.47;;;;;;;;;;4960433;28;20304;-74
2024/01/07 00:20:34;;;;;;;44.47;20.53;;;;;;;;;;4960118;28;20282;-74
2024/01/07 00:22:59;;;;;;;44.67;20.23;;;;;;;;;;4966577;28;20290;-73
2024/01/07 00:25:24;;;;;;;48.13;20.70;;;;;;;;;;4958287;28;20232;-72
2024/01/07 00:27:51;;;;;;;43.00;20.33;;;;;;;;;;4967237;28;21089;-71
2024/01/07 00:30:16;;;;;;;43.40;20.27;;;;;;;;;;4940844;28;20672;-71
2024/01/07 00:32:42;;;;;;;42.10;19.93;;;;;;;;;;4959201;28;20769;-70
2024/01/07 00:35:07;;;;;;;47.60;20.90;;;;;;;;;;4948300;28;20228;-71
2024/01/07 00:37:34;;;;;;;45.77;19.90;;;;;;;;;;4956980;28;20359;-72
2024/01/07 00:40:00;;;;;;;44.00;20.43;;;;;;;;;;4964728;28;20232;-72
2024/01/07 00:42:25;;;;;;;44.17;18.97;;;;;;;;;;4948101;28;20230;-71
2024/01/07 00:44:51;;;;;;;43.83;19.80;;;;;;;;;;4966493;28;20789;-71
2024/01/07 00:47:16;;;;;;;40.43;19.60;;;;;;;;;;4948214;28;20626;-72
2024/01/07 00:49:41;;;;;;;45.90;20.50;;;;;;;;;;4951998;28;20775;-71
2024/01/07 00:52:07;;;;;;;40.43;19.70;;;;;;;;;;4959637;28;20804;-71
2024/01/07 00:54:32;;;;;;;44.07;19.53;;;;;;;;;;4961450;28;20776;-72
2024/01/07 00:56:57;;;;;;;44.47;20.57;;;;;;;;;;4966061;28;20302;-72
2024/01/07 00:59:23;;;;;;;43.60;20.50;;;;;;;;;;4958504;28;20243;-72
2024/01/07 01:01:48;;;;;;;43.60;19.70;;;;;;;;;;4953751;28;20254;-71
2024/01/07 01:04:13;;;;;;;42.07;19.60;;;;;;;;;;4959060;28;20319;-72
2024/01/07 01:06:39;;;;;;;40.87;19.57;;;;;;;;;;4969331;28;20267;-71
2024/01/07 01:09:04;;;;;;;46.07;20.17;;;;;;;;;;4961457;28;20234;-71
2024/01/07 01:11:29;;;;;;;49.47;21.23;;;;;;;;;;4957745;28;20223;-72
2024/01/07 01:13:55;;;;;;;48.73;20.87;;;;;;;;;;4966037;28;20223;-72
2024/01/07 01:16:20;;;;;;;44.57;20.47;;;;;;;;;;4959065;28;20327;-72
2024/01/07 01:18:45;;;;;;;41.53;19.30;;;;;;;;;;4960006;28;20686;-72
2024/01/07 01:21:12;;;;;;;40.60;18.87;;;;;;;;;;4963063;28;20232;-72
2024/01/07 01:23:37;;;;;;;39.63;19.17;;;;;;;;;;4966833;28;20290;-71
2024/01/07 01:26:02;;;;;;;43.10;19.20;;;;;;;;;;4957390;28;20224;-72
2024/01/07 01:28:28;;;;;;;40.67;18.97;;;;;;;;;;4967705;28;20224;-72
2024/01/07 01:30:53;;;;;;;43.70;19.07;;;;;;;;;;4957413;28;20314;-70
2024/01/07 01:33:18;;;;;;;42.03;18.93;;;;;;;;;;4964929;28;20262;-72
2024/01/07 01:35:43;;;;;;;39.57;18.33;;;;;;;;;;4959402;28;20298;-72
2024/01/07 01:38:09;;;;;;;44.20;19.97;;;;;;;;;;4957974;28;20250;-72
2024/01/07 01:40:34;;;;;;;39.77;19.50;;;;;;;;;;4963854;28;20224;-72
2024/01/07 01:42:59;;;;;;;42.37;19.53;;;;;;;;;;4965473;28;20262;-72
2024/01/07 01:45:25;;;;;;;38.90;18.37;;;;;;;;;;4946563;28;20224;-72
2024/01/07 01:47:50;;;;;;;38.17;18.23;;;;;;;;;;4942135;28;20220;-72
2024/01/07 01:50:17;;;;;;;45.17;18.33;;;;;;;;;;4941271;28;20259;-72
2024/01/07 01:52:44;;;;;;;39.87;18.23;;;;;;;;;;4948203;28;20788;-72
2024/01/07 01:55:09;;;;;;;38.47;18.20;;;;;;;;;;4964390;28;20223;-72
2024/01/07 01:57:35;;;;;;;40.07;18.83;;;;;;;;;;4960762;28;20228;-72
2024/01/07 02:00:04;;;;;;;38.97;18.57;;;;;;;;;;4960659;28;20235;-72
2024/01/07 02:02:31;;;;;;;45.53;19.00;;;;;;;;;;4947492;28;20220;-72
2024/01/07 02:04:56;;;;;;;42.20;18.03;;;;;;;;;;4956523;28;20243;-72
2024/01/07 02:07:22;;;;;;;36.77;18.13;;;;;;;;;;4964032;28;20244;-72
2024/01/07 02:09:47;;;;;;;39.13;19.00;;;;;;;;;;4957281;28;20228;-71
2024/01/07 02:12:12;;;;;;;38.53;18.37;;;;;;;;;;4957872;28;20236;-72
2024/01/07 02:14:39;;;;;;;40.43;19.33;;;;;;;;;;4965120;28;20308;-72
2024/01/07 02:17:04;;;;;;;35.53;17.87;;;;;;;;;;4943194;28;20232;-72
2024/01/07 02:19:29;;;;;;;41.17;18.63;;;;;;;;;;4955790;28;20251;-72
2024/01/07 02:21:55;;;;;;;43.47;18.17;;;;;;;;;;4965491;28;20615;-71
2024/01/07 02:24:20;;;;;;;40.17;17.83;;;;;;;;;;4945618;28;20784;-71
2024/01/07 02:26:45;;;;;;;35.60;17.30;;;;;;;;;;4956086;28;20255;-71
2024/01/07 02:29:11;;;;;;;37.03;16.93;;;;;;;;;;4966825;28;20239;-72
2024/01/07 02:31:36;;;;;;;39.67;18.00;;;;;;;;;;4964967;28;20608;-72
2024/01/07 02:34:01;;;;;;;42.07;17.57;;;;;;;;;;4963539;28;20228;-72
2024/01/07 02:36:27;;;;;;;40.27;17.37;;;;;;;;;;4938593;28;20259;-72
2024/01/07 02:38:52;;;;;;;40.23;18.17;;;;;;;;;;4953271;28;20224;-72
2024/01/07 02:41:18;;;;;;;37.43;17.70;;;;;;;;;;4957980;28;20284;-71
2024/01/07 02:43:43;;;;;;;39.77;17.93;;;;;;;;;;4965139;28;20229;-71
2024/01/07 02:46:08;;;;;;;39.07;17.93;;;;;;;;;;4957265;28;20832;-71
2024/01/07 02:48:34;;;;;;;39.07;17.97;;;;;;;;;;4955411;28;20228;-71
2024/01/07 02:51:00;;;;;;;38.43;18.60;;;;;;;;;;4964693;28;20235;-71
2024/01/07 02:53:25;;;;;;;38.87;18.97;;;;;;;;;;4960270;28;20327;-71
2024/01/07 02:55:51;;;;;;;39.53;18.70;;;;;;;;;;4958108;28;20335;-70
2024/01/07 02:58:17;;;;;;;41.27;18.67;;;;;;;;;;4959689;28;20318;-70
2024/01/07 03:00:42;;;;;;;36.37;18.23;;;;;;;;;;4965017;28;20652;-71
2024/01/07 03:03:07;;;;;;;42.90;18.40;;;;;;;;;;4946832;28;20248;-70
2024/01/07 03:05:33;;;;;;;39.90;18.80;;;;;;;;;;4967765;28;20231;-71
2024/01/07 03:08:00;;;;;;;43.73;18.97;;;;;;;;;;4967764;28;20335;-71
2024/01/07 03:10:25;;;;;;;42.57;19.13;;;;;;;;;;4961387;28;20230;-70
2024/01/07 03:12:51;;;;;;;41.33;18.80;;;;;;;;;;4949340;28;20232;-71
2024/01/07 03:15:16;;;;;;;40.87;18.90;;;;;;;;;;4950014;28;20717;-71
2024/01/07 03:17:41;;;;;;;38.30;18.53;;;;;;;;;;4966639;28;20243;-72
2024/01/07 03:20:07;;;;;;;40.20;18.30;;;;;;;;;;4966952;28;20319;-73
2024/01/07 03:22:32;;;;;;;41.40;18.23;;;;;;;;;;4961497;28;20216;-73
2024/01/07 03:24:57;;;;;;;36.17;17.23;;;;;;;;;;4960823;28;20945;-73
2024/01/07 03:27:23;;;;;;;38.17;17.73;;;;;;;;;;4959778;28;20239;-73
2024/01/07 03:29:48;;;;;;;35.63;16.20;;;;;;;;;;4962254;28;20236;-74
2024/01/07 03:32:13;;;;;;;33.40;15.33;;;;;;;;;;4966888;28;20227;-73
2024/01/07 03:34:39;;;;;;;33.97;15.27;;;;;;;;;;4961304;28;20224;-73
2024/01/07 03:37:05;;;;;;;32.30;16.00;;;;;;;;;;4965021;28;20246;-73
2024/01/07 03:39:32;;;;;;;32.40;14.63;;;;;;;;;;4960227;28;20664;-74
2024/01/07 03:41:57;;;;;;;28.27;14.50;;;;;;;;;;4967130;28;20228;-73
2024/01/07 03:44:23;;;;;;;31.00;13.57;;;;;;;;;;4967568;28;20251;-74
2024/01/07 03:46:48;;;;;;;27.73;13.23;;;;;;;;;;4959320;28;20709;-74
2024/01/07 03:49:14;;;;;;;26.80;13.53;;;;;;;;;;4960259;28;20243;-74
2024/01/07 03:51:39;;;;;;;24.70;13.10;;;;;;;;;;4966663;28;20688;-74
2024/01/07 03:54:06;;;;;;;30.43;13.00;;;;;;;;;;4947867;28;20985;-73
2024/01/07 03:56:31;;;;;;;22.37;11.30;;;;;;;;;;4966632;28;20324;-74
2024/01/07 03:58:56;;;;;;;23.13;11.20;;;;;;;;;;4959332;28;20239;-74
2024/01/07 04:01:22;;;;;;;20.23;10.10;;;;;;;;;;4964978;28;20227;-74
2024/01/07 04:03:47;;;;;;;19.70;9.63;;;;;;;;;;4965850;28;20230;-73
2024/01/07 04:06:12;;;;;;;21.37;9.23;;;;;;;;;;4965346;28;20255;-73
2024/01/07 04:08:38;;;;;;;19.93;9.20;;;;;;;;;;4965078;28;20748;-74
2024/01/07 04:11:03;;;;;;;17.50;9.03;;;;;;;;;;4961757;28;20231;-74
2024/01/07 04:13:28;;;;;;;20.07;9.83;;;;;;;;;;4958260;28;20318;-74
2024/01/07 04:15:54;;;;;;;18.67;9.23;;;;;;;;;;4957723;28;20243;-73
2024/01/07 04:18:19;;;;;;;15.13;8.17;;;;;;;;;;4963916;28;20235;-74
2024/01/07 04:20:44;;;;;;;17.87;8.37;;;;;;;;;;4961497;28;20258;-74
2024/01/07 04:23:10;;;;;;;17.20;8.30;;;;;;;;;;4947668;28;20220;-74
2024/01/07 04:25:35;;;;;;;16.00;8.23;;;;;;;;;;4965551;28;20725;-73
2024/01/07 04:28:00;;;;;;;17.10;8.90;;;;;;;;;;4948594;28;20686;-75
2024/01/07 04:30:26;;;;;;;18.83;8.80;;;;;;;;;;4963142;28;20772;-73
2024/01/07 04:32:51;;;;;;;16.23;8.63;;;;;;;;;;4965500;28;20259;-74
2024/01/07 04:35:16;;;;;;;18.17;8.57;;;;;;;;;;4948500;28;20232;-73
2024/01/07 04:37:42;;;;;;;14.63;7.53;;;;;;;;;;4959384;28;20224;-74
2024/01/07 04:40:07;;;;;;;14.43;7.67;;;;;;;;;;4957710;28;20228;-74
2024/01/07 04:42:33;;;;;;;15.27;8.07;;;;;;;;;;4958020;28;20223;-74
2024/01/07 04:44:59;;;;;;;14.63;7.87;;;;;;;;;;4948823;28;20220;-74
2024/01/07 04:47:28;;;;;;;13.47;7.07;;;;;;;;;;4961392;28;20238;-73
2024/01/07 04:49:54;;;;;;;16.23;7.83;;;;;;;;;;4961144;28;20616;-73
2024/01/07 04:52:19;;;;;;;17.20;7.73;;;;;;;;;;4956320;28;20236;-73
2024/01/07 04:54:44;;;;;;;12.20;7.13;;;;;;;;;;4948361;28;20235;-73
2024/01/07 04:57:10;;;;;;;22.30;10.70;;;;;;;;;;4964941;28;20220;-74
2024/01/07 04:59:35;;;;;;;19.83;10.53;;;;;;;;;;4964204;28;20230;-74
2024/01/07 05:02:00;;;;;;;21.63;11.10;;;;;;;;;;4958116;28;20224;-74
2024/01/07 05:04:25;;;;;;;23.90;11.57;;;;;;;;;;4965389;28;20220;-73
2024/01/07 05:06:51;;;;;;;23.47;11.70;;;;;;;;;;4956510;28;20236;-73
2024/01/07 05:09:17;;;;;;;24.10;11.33;;;;;;;;;;4941286;28;20240;-73
2024/01/07 05:11:42;;;;;;;24.03;11.90;;;;;;;;;;4956154;28;20243;-74
2024/01/07 05:14:07;;;;;;;21.27;12.47;;;;;;;;;;4967331;28;20263;-73
2024/01/07 05:16:32;;;;;;;30.53;12.90;;;;;;;;;;4959446;28;20220;-73
2024/01/07 05:18:58;;;;;;;23.83;13.00;;;;;;;;;;4957914;28;20224;-72
2024/01/07 05:21:23;;;;;;;25.90;13.40;;;;;;;;;;4958218;28;20239;-72
2024/01/07 05:23:48;;;;;;;26.90;12.63;;;;;;;;;;4947884;28;20232;-72
2024/01/07 05:26:14;;;;;;;22.17;12.07;;;;;;;;;;4957693;28;20231;-71
2024/01/07 05:28:39;;;;;;;22.73;11.20;;;;;;;;;;4960132;28;20227;-71
2024/01/07 05:31:04;;;;;;;20.80;10.90;;;;;;;;;;4954753;28;20223;-73
2024/01/07 05:33:30;;;;;;;22.47;10.37;;;;;;;;;;4959213;28;20239;-72
2024/01/07 05:35:55;;;;;;;21.43;9.83;;;;;;;;;;4965063;28;20902;-72
2024/01/07 05:38:20;;;;;;;19.10;10.67;;;;;;;;;;4947712;28;21040;-73
2024/01/07 05:40:46;;;;;;;20.20;10.10;;;;;;;;;;4947647;28;20223;-73
2024/01/07 05:43:11;;;;;;;18.90;9.87;;;;;;;;;;4963117;28;20220;-73
2024/01/07 05:45:37;;;;;;;18.80;10.00;;;;;;;;;;4965348;28;20232;-74
2024/01/07 05:48:02;;;;;;;17.53;10.13;;;;;;;;;;4947081;28;20227;-75
2024/01/07 05:50:28;;;;;;;15.77;8.90;;;;;;;;;;4963070;28;20222;-74
2024/01/07 05:52:53;;;;;;;34.37;14.00;;;;;;;;;;4961022;28;20247;-74
2024/01/07 05:55:19;;;;;;;23.60;11.17;;;;;;;;;;4963783;28;20289;-74
2024/01/07 05:57:44;;;;;;;21.30;10.93;;;;;;;;;;4965070;28;20658;-72
2024/01/07 06:00:10;;;;;;;21.60;11.40;;;;;;;;;;4947426;28;20224;-72
2024/01/07 06:02:36;;;;;;;27.13;11.37;;;;;;;;;;4964771;28;20255;-72
2024/01/07 06:05:02;;;;;;;22.23;10.00;;;;;;;;;;4947554;28;20257;-72
2024/01/07 06:07:27;;;;;;;19.43;9.50;;;;;;;;;;4946091;28;20251;-71
2024/01/07 06:09:52;;;;;;;17.17;9.33;;;;;;;;;;4947600;28;20220;-70
2024/01/07 06:12:18;;;;;;;19.07;9.07;;;;;;;;;;4946554;28;20259;-71
2024/01/07 06:14:43;;;;;;;17.93;8.60;;;;;;;;;;4946893;28;20232;-71
2024/01/07 06:17:09;;;;;;;18.17;9.00;;;;;;;;;;4962718;28;20220;-72
2024/01/07 06:19:34;;;;;;;17.83;8.27;;;;;;;;;;4965311;28;20228;-72
2024/01/07 06:21:59;;;;;;;14.57;8.57;;;;;;;;;;4964062;28;20224;-72
2024/01/07 06:24:25;;;;;;;21.80;9.57;;;;;;;;;;4957983;28;20228;-72
2024/01/07 06:26:50;;;;;;;26.60;12.33;;;;;;;;;;4963487;28;20241;-71
2024/01/07 06:29:15;;;;;;;16.77;8.57;;;;;;;;;;4968282;28;20307;-72
2024/01/07 06:31:45;;;;;;;16.23;8.53;;;;;;;;;;4964519;28;20259;-72
2024/01/07 06:34:13;;;;;;;23.20;11.90;;;;;;;;;;4955067;28;20641;-73
2024/01/07 06:36:38;;;;;;;26.93;12.73;;;;;;;;;;4965796;28;20212;-73
2024/01/07 06:39:05;;;;;;;26.03;13.57;;;;;;;;;;4960892;28;20270;-73
2024/01/07 06:41:30;;;;;;;23.77;11.80;;;;;;;;;;4966831;28;20339;-72
2024/01/07 06:43:56;;;;;;;22.37;11.23;;;;;;;;;;4962372;28;20896;-71
2024/01/07 06:46:22;;;;;;;22.20;11.90;;;;;;;;;;4968035;28;20276;-72
2024/01/07 06:48:47;;;;;;;21.80;11.60;;;;;;;;;;4954528;28;20239;-71
2024/01/07 06:51:14;;;;;;;18.40;10.00;;;;;;;;;;4967319;28;20710;-71
2024/01/07 06:53:40;;;;;;;19.23;9.27;;;;;;;;;;4951744;28;20240;-72
2024/01/07 06:56:05;;;;;;;20.27;9.13;;;;;;;;;;4952007;28;20711;-73
2024/01/07 06:58:32;;;;;;;18.47;9.47;;;;;;;;;;4962089;28;20216;-71
2024/01/07 07:00:57;;;;;;;23.20;11.47;;;;;;;;;;4959408;28;20242;-72
2024/01/07 07:03:22;;;;;;;18.80;9.50;;;;;;;;;;4960542;28;20232;-72
2024/01/07 07:05:48;;;;;;;19.67;9.47;;;;;;;;;;4962937;28;20228;-71
2024/01/07 07:08:13;;;;;;;19.50;9.53;;;;;;;;;;4950103;28;20224;-71
2024/01/07 07:10:39;;;;;;;19.23;9.73;;;;;;;;;;4960733;28;20247;-72
2024/01/07 07:13:04;;;;;;;18.80;9.40;;;;;;;;;;4965744;28;20672;-72
2024/01/07 07:15:29;;;;;;;19.90;10.13;;;;;;;;;;4966208;28;20220;-71
2024/01/07 07:17:55;;;;;;;20.90;11.87;;;;;;;;;;4962003;28;20311;-71
2024/01/07 07:20:20;;;;;;;23.07;10.83;;;;;;;;;;4948689;28;20228;-71
2024/01/07 07:22:46;;;;;;;22.50;11.10;;;;;;;;;;4960318;28;20319;-72
2024/01/07 07:25:11;;;;;;;26.33;13.67;;;;;;;;;;4948510;28;20227;-71
2024/01/07 07:27:37;;;;;;;21.27;11.67;;;;;;;;;;4962947;28;20310;-71
2024/01/07 07:30:06;;;;;;;18.93;9.70;;;;;;;;;;4958846;28;20783;-72
2024/01/07 07:32:35;;;;;;;20.67;10.13;;;;;;;;;;4957750;28;20261;-73
2024/01/07 07:35:00;;;;;;;19.60;9.83;;;;;;;;;;4949799;28;20911;-72
2024/01/07 07:37:26;;;;;;;18.27;10.23;;;;;;;;;;4966945;28;20274;-73
2024/01/07 07:39:51;;;;;;;19.60;9.90;;;;;;;;;;4966514;28;20243;-72
2024/01/07 07:42:17;;;;;;;17.60;9.30;;;;;;;;;;4966705;28;20224;-74
2024/01/07 07:44:42;;;;;;;19.00;10.00;;;;;;;;;;4967111;28;20231;-73
2024/01/07 07:47:08;;;;;;;15.50;9.23;;;;;;;;;;4962027;28;20315;-72
2024/01/07 07:49:34;;;;;;;18.17;10.10;;;;;;;;;;4966135;28;20221;-73
2024/01/07 07:51:59;;;;;;;21.37;10.00;;;;;;;;;;4959646;28;20323;-74
2024/01/07 07:54:24;;;;;;;16.33;9.10;;;;;;;;;;4965834;28;20421;-73
2024/01/07 07:56:50;;;;;;;15.90;8.53;;;;;;;;;;4959512;28;20228;-73
2024/01/07 07:59:15;;;;;;;18.83;8.90;;;;;;;;;;4960867;28;20835;-72
2024/01/07 08:01:40;;;;;;;17.77;8.70;;;;;;;;;;4949361;28;20246;-73
2024/01/07 08:04:06;;;;;;;16.50;9.30;;;;;;;;;;4948383;28;20619;-72
2024/01/07 08:06:31;;;;;;;19.43;9.67;;;;;;;;;;4962875;28;20284;-71
2024/01/07 08:08:56;;;;;;;20.10;10.80;;;;;;;;;;4962288;28;20228;-71
2024/01/07 08:11:22;;;;;;;19.70;10.67;;;;;;;;;;4960039;28;20314;-71
2024/01/07 08:13:47;;;;;;;18.33;10.47;;;;;;;;;;4965216;28;20323;-72
2024/01/07 08:16:12;;;;;;;24.70;11.73;;;;;;;;;;4964252;28;20228;-73
2024/01/07 08:18:38;;;;;;;20.17;11.33;;;;;;;;;;4948389;28;20654;-71
2024/01/07 08:21:03;;;;;;;22.90;12.10;;;;;;;;;;4961679;28;20216;-70
2024/01/07 08:23:29;;;;;;;20.83;12.10;;;;;;;;;;4956105;28;20722;-71
2024/01/07 08:25:54;;;;;;;22.40;12.60;;;;;;;;;;4967263;28;20651;-70
2024/01/07 08:28:20;;;;;;;27.60;14.00;;;;;;;;;;4966006;28;20255;-71
2024/01/07 08:30:46;;;;;;;23.70;12.57;;;;;;;;;;4965597;28;20220;-71
2024/01/07 08:33:11;;;;;;;26.73;14.07;;;;;;;;;;4955808;28;20236;-72
2024/01/07 08:35:37;;;;;;;24.83;13.80;;;;;;;;;;4968136;28;20733;-72
2024/01/07 08:38:02;;;;;;;25.43;13.33;;;;;;;;;;4949645;28;20232;-72
2024/01/07 08:40:29;;;;;;;26.93;14.40;;;;;;;;;;4958588;28;20336;-71
2024/01/07 08:42:54;;;;;;;26.70;13.93;;;;;;;;;;4950106;28;20322;-71
2024/01/07 08:45:19;;;;;;;28.20;15.13;;;;;;;;;;4957346;28;20370;-71
2024/01/07 08:47:45;;;;;;;26.33;14.03;;;;;;;;;;4965914;28;20234;-71
2024/01/07 08:50:10;;;;;;;31.07;15.10;;;;;;;;;;4959963;28;20226;-71
2024/01/07 08:52:36;;;;;;;25.50;14.20;;;;;;;;;;4963567;28;20232;-71
2024/01/07 08:55:02;;;;;;;28.37;14.47;;;;;;;;;;4948800;28;20311;-71
2024/01/07 08:57:27;;;;;;;28.53;14.73;;;;;;;;;;4961859;28;20228;-71
2024/01/07 08:59:53;;;;;;;25.83;14.20;;;;;;;;;;4959701;28;20238;-71
2024/01/07 09:02:18;;;;;;;27.80;14.03;;;;;;;;;;4972237;28;20303;-72
2024/01/07 09:04:51;;;;;;;25.30;13.17;;;;;;;;;;4955512;28;20223;-71
2024/01/07 09:07:19;;;;;;;24.67;13.10;;;;;;;;;;4954191;28;20304;-72
2024/01/07 09:09:45;;;;;;;23.97;12.77;;;;;;;;;;4941080;28;20286;-71
2024/01/07 09:12:10;;;;;;;24.03;12.93;;;;;;;;;;4976600;28;20245;-71
2024/01/07 09:14:40;;;;;;;20.70;10.57;;;;;;;;;;4946505;28;20306;-73
2024/01/07 09:17:05;;;;;;;23.23;12.07;;;;;;;;;;4953556;28;20310;-72
2024/01/07 09:19:30;;;;;;;22.60;12.47;;;;;;;;;;4947777;28;20310;-70
2024/01/07 09:21:56;;;;;;;21.20;12.30;;;;;;;;;;4942978;28;20303;-70
2024/01/07 09:24:21;;;;;;;19.53;11.37;;;;;;;;;;4971016;28;20223;-71
2024/01/07 09:26:46;;;;;;;18.67;10.20;;;;;;;;;;4956890;28;20222;-72
2024/01/07 09:29:12;;;;;;;18.07;9.50;;;;;;;;;;4963901;28;20270;-72
2024/01/07 09:31:37;;;;;;;20.37;9.97;;;;;;;;;;4962357;28;20216;-72
2024/01/07 09:34:04;;;;;;;20.80;10.90;;;;;;;;;;4964392;28;20721;-71
2024/01/07 09:36:29;;;;;;;20.83;10.00;;;;;;;;;;4946979;28;20304;-71
2024/01/07 09:38:54;;;;;;;22.30;11.57;;;;;;;;;;4948138;28;20335;-71
2024/01/07 09:41:20;;;;;;;23.87;12.20;;;;;;;;;;4958189;28;20255;-71
2024/01/07 09:43:45;;;;;;;21.07;11.10;;;;;;;;;;4957365;28;20231;-71
2024/01/07 09:46:10;;;;;;;24.63;11.60;;;;;;;;;;4963977;28;20295;-71
2024/01/07 09:48:36;;;;;;;20.90;10.33;;;;;;;;;;4957754;28;20224;-72
2024/01/07 09:51:01;;;;;;;19.53;10.23;;;;;;;;;;4960828;28;20230;-71
2024/01/07 09:53:28;;;;;;;19.73;10.40;;;;;;;;;;4964108;28;20683;-72
2024/01/07 09:56:01;;;;;;;19.47;10.40;;;;;;;;;;4967546;28;20259;-72
2024/01/07 09:58:26;;;;;;;18.60;9.87;;;;;;;;;;4958031;28;20299;-72
2024/01/07 10:00:52;;;;;;;16.50;9.17;;;;;;;;;;4957537;28;20224;-71
2024/01/07 10:03:17;;;;;;;15.97;8.70;;;;;;;;;;4963184;28;20224;-72
2024/01/07 10:05:42;;;;;;;17.03;9.10;;;;;;;;;;4947255;28;20259;-72
2024/01/07 10:08:08;;;;;;;14.30;8.47;;;;;;;;;;4935290;28;20248;-72
2024/01/07 10:10:34;;;;;;;13.80;7.77;;;;;;;;;;4946433;28;20875;-70
2024/01/07 10:13:00;;;;;;;14.50;6.60;;;;;;;;;;4950819;28;20274;-72
2024/01/07 10:15:25;;;;;;;10.87;5.80;;;;;;;;;;4964587;28;20663;-73
2024/01/07 10:17:54;;;;;;;10.67;5.70;;;;;;;;;;4967215;28;20267;-72
2024/01/07 10:20:19;;;;;;;11.77;6.07;;;;;;;;;;4982121;28;20247;-71
2024/01/07 10:22:51;;;;;;;8.83;5.60;;;;;;;;;;4968998;28;20259;-71
2024/01/07 10:25:16;;;;;;;13.33;5.93;;;;;;;;;;4959553;28;20251;-72
2024/01/07 10:27:42;;;;;;;11.37;6.00;;;;;;;;;;4959896;28;20321;-71
2024/01/07 10:30:08;;;;;;;10.83;5.67;;;;;;;;;;4940938;28;20606;-72
2024/01/07 10:32:35;;;;;;;9.97;5.40;;;;;;;;;;4963134;28;20235;-71
2024/01/07 10:35:04;;;;;;;8.33;5.10;;;;;;;;;;4951164;28;20228;-71
2024/01/07 10:37:30;;;;;;;10.00;5.40;;;;;;;;;;4948996;28;20244;-71
2024/01/07 10:40:03;;;;;;;10.37;4.77;;;;;;;;;;4950265;28;20310;-72
2024/01/07 10:42:30;;;;;;;13.50;7.00;;;;;;;;;;4950007;28;20307;-72
2024/01/07 10:44:56;;;;;;;13.00;6.20;;;;;;;;;;4981943;28;20367;-71
2024/01/07 10:47:21;;;;;;;11.90;5.17;;;;;;;;;;4957777;28;20319;-72
2024/01/07 10:49:46;;;;;;;9.57;5.50;;;;;;;;;;4963255;28;20231;-71
2024/01/07 10:52:13;;;;;;;11.50;6.20;;;;;;;;;;4965331;28;20238;-71
2024/01/07 10:54:38;;;;;;;12.03;6.07;;;;;;;;;;4950642;28;20226;-71
2024/01/07 10:57:12;;;;;;;12.33;6.10;;;;;;;;;;4961550;28;20220;-72
2024/01/07 10:59:37;;;;;;;10.67;6.20;;;;;;;;;;4962677;28;20259;-71
2024/01/07 11:02:03;;;;;;;13.43;6.17;;;;;;;;;;4961779;28;20267;-72
2024/01/07 11:04:47;;;;;;;9.97;5.43;;;;;;;;;;4957854;28;20231;-73
2024/01/07 11:07:19;;;;;;;11.70;6.93;;;;;;;;;;4967063;28;20832;-73
2024/01/07 11:09:52;;;;;;;14.20;6.40;;;;;;;;;;4982744;28;20259;-73
2024/01/07 11:12:18;;;;;;;16.97;8.30;;;;;;;;;;4960891;28;20232;-73
2024/01/07 11:14:53;;;;;;;13.77;6.97;;;;;;;;;;4958884;28;20286;-73
2024/01/07 11:17:45;;;;;;;11.77;5.40;;;;;;;;;;4958895;28;20959;-72
2024/01/07 11:20:18;;;;;;;12.60;6.27;;;;;;;;;;4964943;28;20275;-73
2024/01/07 11:22:43;;;;;;;13.07;6.93;;;;;;;;;;4948296;28;20224;-72
2024/01/07 11:25:27;;;;;;;14.23;5.90;;;;;;;;;;4967189;28;20724;-73
2024/01/07 11:27:52;;;;;;;13.17;6.47;;;;;;;;;;4967881;28;20705;-73
2024/01/07 11:30:19;;;;;;;13.50;7.10;;;;;;;;;;4957127;28;20231;-73
2024/01/07 11:32:44;;;;;;;11.17;5.30;;;;;;;;;;4950041;28;20235;-73
2024/01/07 11:35:10;;;;;;;7.47;3.97;;;;;;;;;;4959591;28;20217;-73
2024/01/07 11:37:35;;;;;;;7.90;4.30;;;;;;;;;;4965825;28;20227;-73
2024/01/07 11:40:04;;;;;;;8.53;4.60;;;;;;;;;;4966565;28;21076;-74
2024/01/07 11:42:29;;;;;;;10.17;4.70;;;;;;;;;;4957055;28;20224;-73
2024/01/07 11:44:54;;;;;;;10.73;6.10;;;;;;;;;;4948910;28;20220;-72
2024/01/07 11:47:20;;;;;;;11.07;5.10;;;;;;;;;;4961070;28;20220;-72
2024/01/07 11:49:46;;;;;;;7.53;3.90;;;;;;;;;;4960426;28;20288;-73
2024/01/07 11:52:11;;;;;;;6.33;3.70;;;;;;;;;;4957060;28;20283;-71
2024/01/07 11:54:39;;;;;;;8.30;4.13;;;;;;;;;;4958761;28;20617;-72
2024/01/07 11:57:05;;;;;;;8.47;4.00;;;;;;;;;;4958448;28;20705;-73
2024/01/07 11:59:31;;;;;;;5.33;3.30;;;;;;;;;;4948982;28;20247;-73
2024/01/07 12:01:56;;;;;;;7.67;3.50;;;;;;;;;;4965841;28;20239;-72
2024/01/07 12:04:21;;;;;;;7.33;3.30;;;;;;;;;;4955485;28;20706;-73
2024/01/07 12:06:47;;;;;;;11.20;5.27;;;;;;;;;;4967160;28;20228;-72
2024/01/07 12:09:13;;;;;;;8.67;4.07;;;;;;;;;;4948126;28;20259;-73
2024/01/07 12:11:40;;;;;;;9.60;3.60;;;;;;;;;;4965456;28;20220;-72
2024/01/07 12:14:05;;;;;;;7.47;4.50;;;;;;;;;;4966053;28;20220;-70
2024/01/07 12:16:31;;;;;;;7.73;5.07;;;;;;;;;;4965296;28;20948;-72
2024/01/07 12:18:56;;;;;;;8.17;4.80;;;;;;;;;;4948923;28;20662;-71
2024/01/07 12:21:22;;;;;;;9.43;5.87;;;;;;;;;;4958688;28;20228;-72
2024/01/07 12:23:50;;;;;;;10.13;5.47;;;;;;;;;;4966111;28;20236;-72
2024/01/07 12:26:16;;;;;;;10.93;4.80;;;;;;;;;;4957420;28;20240;-72
2024/01/07 12:28:41;;;;;;;7.30;4.43;;;;;;;;;;4964347;28;20231;-71
2024/01/07 12:31:06;;;;;;;8.47;4.57;;;;;;;;;;4959208;28;20315;-73
2024/01/07 12:33:33;;;;;;;9.00;4.50;;;;;;;;;;4963892;28;20228;-72
2024/01/07 12:35:59;;;;;;;10.30;4.90;;;;;;;;;;4948745;28;20224;-72
2024/01/07 12:38:24;;;;;;;8.87;4.70;;;;;;;;;;4956127;28;20612;-71
2024/01/07 12:40:50;;;;;;;10.97;5.00;;;;;;;;;;4960653;28;20220;-72
2024/01/07 12:43:15;;;;;;;11.63;5.10;;;;;;;;;;4963509;28;20236;-72
2024/01/07 12:45:41;;;;;;;9.67;4.93;;;;;;;;;;4952843;28;20275;-72
2024/01/07 12:48:06;;;;;;;10.80;5.43;;;;;;;;;;4946648;28;20239;-72
2024/01/07 12:50:32;;;;;;;12.93;4.97;;;;;;;;;;4957877;28;20224;-71
2024/01/07 12:52:58;;;;;;;9.43;4.97;;;;;;;;;;4964659;28;20228;-72
2024/01/07 12:55:23;;;;;;;14.33;5.60;;;;;;;;;;4948046;28;20235;-71
2024/01/07 12:57:49;;;;;;;10.40;4.93;;;;;;;;;;4965141;28;20223;-72
2024/01/07 13:00:14;;;;;;;11.33;5.50;;;;;;;;;;4964045;28;20323;-72
2024/01/07 13:02:40;;;;;;;10.13;5.37;;;;;;;;;;4964003;28;20252;-72
2024/01/07 13:05:06;;;;;;;11.30;5.20;;;;;;;;;;4965309;28;20230;-73
2024/01/07 13:07:32;;;;;;;11.10;4.70;;;;;;;;;;4947342;28;20272;-73
2024/01/07 13:09:57;;;;;;;10.50;5.00;;;;;;;;;;4958813;28;20277;-73
2024/01/07 13:12:22;;;;;;;10.73;5.03;;;;;;;;;;4962422;28;20247;-73
2024/01/07 13:14:48;;;;;;;11.20;5.13;;;;;;;;;;4963955;28;20351;-73
2024/01/07 13:17:13;;;;;;;15.60;5.60;;;;;;;;;;4960768;28;20330;-73
2024/01/07 13:19:39;;;;;;;9.37;5.20;;;;;;;;;;4958932;28;20307;-73
2024/01/07 13:22:04;;;;;;;12.00;5.07;;;;;;;;;;4954253;28;20231;-73
2024/01/07 13:24:30;;;;;;;12.33;5.10;;;;;;;;;;4966208;28;20216;-73
2024/01/07 13:26:55;;;;;;;11.70;5.30;;;;;;;;;;4960777;28;21002;-73
2024/01/07 13:29:20;;;;;;;11.03;5.10;;;;;;;;;;4947224;28;20224;-73
2024/01/07 13:31:46;;;;;;;14.77;7.80;;;;;;;;;;4965135;28;20812;-73
2024/01/07 13:34:13;;;;;;;17.50;7.10;;;;;;;;;;4946852;28;20228;-74
2024/01/07 13:36:39;;;;;;;15.13;6.07;;;;;;;;;;4957312;28;20290;-74
2024/01/07 13:39:07;;;;;;;13.10;5.70;;;;;;;;;;4964586;28;20231;-73
2024/01/07 13:41:33;;;;;;;12.87;5.70;;;;;;;;;;4960312;28;20287;-73
2024/01/07 13:43:58;;;;;;;10.37;5.87;;;;;;;;;;4947426;28;20228;-74
2024/01/07 13:46:25;;;;;;;11.50;5.70;;;;;;;;;;4948879;28;20282;-74
2024/01/07 13:48:51;;;;;;;12.80;5.70;;;;;;;;;;4957274;28;20234;-74
2024/01/07 13:51:17;;;;;;;10.30;5.57;;;;;;;;;;4955486;28;20315;-74
2024/01/07 13:53:42;;;;;;;15.50;5.53;;;;;;;;;;4951591;28;20294;-74
2024/01/07 13:56:08;;;;;;;8.97;5.13;;;;;;;;;;4962317;28;20228;-73
2024/01/07 13:58:33;;;;;;;9.53;4.93;;;;;;;;;;4967880;28;20813;-74
2024/01/07 14:00:59;;;;;;;13.27;5.60;;;;;;;;;;4963639;28;20757;-73
2024/01/07 14:03:24;;;;;;;15.83;5.60;;;;;;;;;;4963226;28;20228;-73
2024/01/07 14:05:51;;;;;;;15.30;6.00;;;;;;;;;;4949261;28;20243;-73
2024/01/07 14:08:16;;;;;;;13.40;6.50;;;;;;;;;;4945897;28;20235;-72
2024/01/07 14:10:42;;;;;;;12.57;6.07;;;;;;;;;;4962681;28;20235;-72
2024/01/07 14:13:07;;;;;;;10.50;5.40;;;;;;;;;;4944793;28;20313;-73
2024/01/07 14:15:32;;;;;;;14.13;5.87;;;;;;;;;;4944922;28;20231;-74